Terminal Aerodrome Forecast
Issued by NWS Denver/Boulder, CO

Home | Current Version | Previous Version | Text Only | Print | Product List | Glossary On
Versions: 1 2 3 4 5 6 7 8 9 10 11 12 13 14 15 16 17 18 19 20 21 22 23 24 25 26 27 28 29 30 31 32 33 34 35 36 37 38 39 40 41 42 43 44 45 46 47 48 49 50
000
FTUS45 KBOU 281326 AAB
TAFDEN
TAF AMD
KDEN 281326Z 2813/2918 27010KT P6SM SCT006 SCT040 SCT150
     FM281500 30006KT P6SM SCT060 BKN150
     FM281700 VRB05KT P6SM SCT080 BKN150
     FM281900 11007KT P6SM VCTS SCT060CB BKN100
      TEMPO 2819/2822 VRB15G30KT -TSRA BKN060CB
     FM282300 15008KT P6SM VCSH SCT080 BKN120
     FM290200 20008KT P6SM SCT080 SCT120
     FM291000 23006KT P6SM VCSH SCT070 BKN120
     FM291500 36010KT P6SM SCT040 BKN080
      TEMPO 2915/2918 -SHRA BKN040=

USA.gov is the U.S. government's official web portal to all federal, state and local government web resources and services.